Time,TemperatureF,DewpointF,PressureIn,WindDirection,WindDirectionDegrees,WindSpeedMPH,WindSpeedGustMPH,Humidity,HourlyPrecipIn,Conditions,Clouds,dailyrainin,SoftwareType,DateUTC
2013-04-25 00:03:00,41.2,18.1,29.99,SSW,201,3.5,3.6,39,0.00,CLR,SCT,0.00,WeatherDisplay:10.37,2013-04-25 07:03:00,
2013-04-25 00:09:00,41.2,18.1,29.99,South,186,5.8,5.8,39,0.00,CLR,SCT,0.00,WeatherDisplay:10.37,2013-04-25 07:09:00,
2013-04-25 00:14:00,41.9,18.7,29.99,South,183,5.8,5.8,39,0.00,CLR,SCT,0.00,WeatherDisplay:10.37,2013-04-25 07:14:00,
2013-04-25 00:19:00,42.1,18.9,29.99,South,175,4.0,4.0,39,0.00,CLR,SCT,0.00,WeatherDisplay:10.37,2013-04-25 07:19:00,
2013-04-25 00:24:00,41.7,18.5,29.99,ESE,122,4.6,4.6,39,0.00,CLR,SCT,0.00,WeatherDisplay:10.37,2013-04-25 07:24:00,
2013-04-25 00:29:00,41.5,18.4,29.99,ESE,119,3.5,3.5,39,0.00,CLR,SCT,0.00,WeatherDisplay:10.37,2013-04-25 07:29:00,
2013-04-25 00:35:00,41.2,18.1,29.99,ESE,114,3.5,3.5,39,0.00,CLR,SCT,0.00,WeatherDisplay:10.37,2013-04-25 07:35:00,
2013-04-25 00:40:00,40.8,17.7,29.99,ESE,105,0.0,0.0,39,0.00,CLR,SCT,0.00,WeatherDisplay:10.37,2013-04-25 07:40:00,
2013-04-25 00:45:00,40.5,17.4,29.99,ESE,105,0.0,0.0,39,0.00,CLR,SCT,0.00,WeatherDisplay:10.37,2013-04-25 07:45:00,
2013-04-25 00:50:00,40.3,17.3,29.99,ESE,105,0.0,0.0,39,0.00,CLR,SCT,0.00,WeatherDisplay:10.37,2013-04-25 07:50:00,
2013-04-25 00:55:00,40.3,17.3,29.99,ESE,105,0.0,0.0,39,0.00,CLR,SCT,0.00,WeatherDisplay:10.37,2013-04-25 07:55:00,
2013-04-25 01:00:00,40.3,17.3,29.99,ESE,105,0.0,0.0,39,0.00,CLR,SCT,0.00,WeatherDisplay:10.37,2013-04-25 08:00:00,
2013-04-25 01:05:00,39.9,16.9,29.99,ESE,105,0.0,0.0,39,0.00,CLR,SCT,0.00,WeatherDisplay:10.37,2013-04-25 08:05:00,
2013-04-25 01:10:00,39.6,16.6,29.99,ESE,105,0.0,0.0,39,0.00,CLR,SCT,0.00,WeatherDisplay:10.37,2013-04-25 08:10:00,
2013-04-25 01:15:00,39.2,16.3,29.99,ESE,105,0.0,0.0,39,0.00,CLR,SCT,0.00,WeatherDisplay:10.37,2013-04-25 08:15:00,
2013-04-25 01:20:00,38.5,16.2,29.99,ESE,105,0.0,0.0,40,0.00,CLR,SCT,0.00,WeatherDisplay:10.37,2013-04-25 08:20:00,
2013-04-25 01:26:00,37.9,15.7,29.99,ESE,105,0.0,0.0,40,0.00,CLR,SCT,0.00,WeatherDisplay:10.37,2013-04-25 08:26:00,
2013-04-25 01:31:00,37.6,16.5,29.99,ESE,107,0.0,0.0,42,0.00,CLR,SCT,0.00,WeatherDisplay:10.37,2013-04-25 08:31:00,
2013-04-25 01:36:00,36.9,16.4,29.99,ESE,119,0.0,0.0,43,0.00,CLR,SCT,0.00,WeatherDisplay:10.37,2013-04-25 08:36:00,
2013-04-25 01:41:00,36.1,16.8,29.99,SSE,154,0.0,0.0,45,0.00,CLR,SCT,0.00,WeatherDisplay:10.37,2013-04-25 08:41:00,
2013-04-25 01:46:00,35.6,16.8,29.99,SSE,154,0.0,0.0,46,0.00,CLR,SCT,0.00,WeatherDisplay:10.37,2013-04-25 08:46:00,
2013-04-25 01:51:00,35.4,16.7,29.99,SSE,154,0.0,0.0,46,0.00,CLR,SCT,0.00,WeatherDisplay:10.37,2013-04-25 08:51:00,
2013-04-25 01:56:00,34.9,17.2,29.99,SSE,154,0.0,0.0,48,0.00,CLR,SCT,0.00,WeatherDisplay:10.37,2013-04-25 08:56:00,
2013-04-25 02:02:00,34.5,16.8,29.99,SSE,157,0.0,0.0,48,0.00,CLR,SCT,0.00,WeatherDisplay:10.37,2013-04-25 09:02:00,
2013-04-25 02:07:00,34.5,16.8,29.99,SSE,156,4.6,4.6,48,0.00,CLR,SCT,0.00,WeatherDisplay:10.37,2013-04-25 09:07:00,
2013-04-25 02:12:00,34.2,16.5,29.99,SSE,155,4.6,4.6,48,0.00,CLR,SCT,0.00,WeatherDisplay:10.37,2013-04-25 09:12:00,
2013-04-25 02:17:00,33.8,16.2,29.99,SSE,155,4.6,4.6,48,0.00,CLR,SCT,0.00,WeatherDisplay:10.37,2013-04-25 09:17:00,
2013-04-25 02:22:00,33.4,16.8,29.99,SSE,155,5.8,5.8,50,0.00,CLR,SCT,0.00,WeatherDisplay:10.37,2013-04-25 09:22:00,
2013-04-25 02:28:00,33.3,16.6,29.99,SSE,155,4.9,4.9,50,0.00,CLR,SCT,0.00,WeatherDisplay:10.37,2013-04-25 09:28:00,
2013-04-25 02:33:00,33.1,16.4,29.99,SSE,155,3.5,3.6,50,0.00,CLR,SCT,0.00,WeatherDisplay:10.37,2013-04-25 09:33:00,
2013-04-25 02:38:00,32.9,16.3,29.99,SSE,155,3.5,3.6,50,0.00,CLR,SCT,0.00,WeatherDisplay:10.37,2013-04-25 09:38:00,
2013-04-25 02:43:00,32.7,16.6,29.99,SSE,155,4.0,4.0,51,0.00,CLR,SCT,0.00,WeatherDisplay:10.37,2013-04-25 09:43:00,
2013-04-25 02:48:00,32.7,16.1,29.99,SSE,155,3.5,3.5,50,0.00,CLR,SCT,0.00,WeatherDisplay:10.37,2013-04-25 09:48:00,
2013-04-25 02:53:00,32.9,16.3,29.99,SSE,155,3.5,3.5,50,0.00,CLR,SCT,0.00,WeatherDisplay:10.37,2013-04-25 09:53:00,
2013-04-25 02:58:00,33.3,16.1,29.99,SSE,155,2.3,0.0,49,0.00,CLR,SCT,0.00,WeatherDisplay:10.37,2013-04-25 09:58:00,
2013-04-25 03:04:00,33.4,15.8,29.99,SSE,155,2.3,0.0,48,0.00,CLR,SCT,0.00,WeatherDisplay:10.37,2013-04-25 10:04:00,
2013-04-25 03:09:00,33.3,15.2,29.99,SSE,155,2.3,0.0,47,0.00,CLR,SCT,0.00,WeatherDisplay:10.37,2013-04-25 10:09:00,
2013-04-25 03:14:00,33.3,15.7,29.99,SSE,155,0.0,0.0,48,0.00,CLR,SCT,0.00,WeatherDisplay:10.37,2013-04-25 10:14:00,
2013-04-25 03:19:00,32.9,14.8,29.99,SSE,155,0.0,0.0,47,0.00,CLR,SCT,0.00,WeatherDisplay:10.37,2013-04-25 10:19:00,
2013-04-25 03:24:00,32.9,14.8,29.99,SSE,155,0.0,0.0,47,0.00,CLR,SCT,0.00,WeatherDisplay:10.37,2013-04-25 10:24:00,
2013-04-25 03:29:00,32.9,14.4,29.99,SSE,155,0.0,0.0,46,0.00,CLR,SCT,0.00,WeatherDisplay:10.37,2013-04-25 10:29:00,
2013-04-25 03:34:00,32.7,14.7,29.99,SSE,155,0.0,0.0,47,0.00,CLR,SCT,0.00,WeatherDisplay:10.37,2013-04-25 10:34:00,
2013-04-25 03:40:00,32.2,15.6,29.99,SSE,155,3.6,3.6,50,0.00,CLR,SCT,0.00,WeatherDisplay:10.37,2013-04-25 10:40:00,
2013-04-25 03:45:00,31.3,15.7,29.99,SSE,167,3.6,3.6,52,0.00,CLR,SCT,0.00,WeatherDisplay:10.37,2013-04-25 10:45:00,
2013-04-25 03:50:00,30.6,15.9,29.99,South,183,4.6,4.6,54,0.00,CLR,SCT,0.00,WeatherDisplay:10.37,2013-04-25 10:50:00,
2013-04-25 03:55:00,30.4,15.7,29.99,SSW,194,5.8,5.8,54,0.00,CLR,SCT,0.00,WeatherDisplay:10.37,2013-04-25 10:55:00,
2013-04-25 04:00:00,30.2,15.1,29.99,SSW,207,4.6,4.6,53,0.00,CLR,SCT,0.00,WeatherDisplay:10.37,2013-04-25 11:00:00,
2013-04-25 04:06:00,30.2,15.1,29.99,SSW,210,5.8,5.8,53,0.00,CLR,SCT,0.00,WeatherDisplay:10.37,2013-04-25 11:06:00,
2013-04-25 04:11:00,30.4,14.8,29.99,SW,214,4.6,4.6,52,0.00,CLR,SCT,0.00,WeatherDisplay:10.37,2013-04-25 11:11:00,
2013-04-25 04:16:00,30.2,14.7,29.99,SW,214,4.0,4.0,52,0.00,CLR,SCT,0.00,WeatherDisplay:10.37,2013-04-25 11:16:00,
2013-04-25 04:21:00,30.4,14.4,29.99,SSW,213,4.6,4.6,51,0.00,CLR,SCT,0.00,WeatherDisplay:10.37,2013-04-25 11:21:00,
2013-04-25 04:26:00,30.6,14.6,29.99,SSW,213,4.6,4.6,51,0.00,CLR,SCT,0.00,WeatherDisplay:10.37,2013-04-25 11:26:00,
2013-04-25 04:31:00,30.7,14.7,29.99,SSW,213,5.8,5.8,51,0.00,CLR,SCT,0.00,WeatherDisplay:10.37,2013-04-25 11:31:00,
2013-04-25 04:36:00,30.7,14.3,29.99,SSW,213,3.5,3.5,50,0.00,CLR,SCT,0.00,WeatherDisplay:10.37,2013-04-25 11:36:00,
2013-04-25 04:42:00,31.3,13.8,29.99,SSW,213,4.0,4.0,48,0.00,CLR,SCT,0.00,WeatherDisplay:10.37,2013-04-25 11:42:00,
2013-04-25 04:47:00,31.6,14.6,29.99,SSW,213,3.6,3.6,49,0.00,CLR,SCT,0.00,WeatherDisplay:10.37,2013-04-25 11:47:00,
2013-04-25 04:52:00,31.1,14.6,29.99,SSW,211,3.5,3.5,50,0.00,CLR,SCT,0.00,WeatherDisplay:10.37,2013-04-25 11:52:00,
2013-04-25 04:57:00,30.6,14.6,29.99,SSW,211,3.5,3.5,51,0.00,CLR,SCT,0.00,WeatherDisplay:10.37,2013-04-25 11:57:00,
2013-04-25 05:02:00,30.2,14.7,29.99,SSW,211,3.5,3.5,52,0.00,CLR,SCT,0.00,WeatherDisplay:10.37,2013-04-25 12:02:00,
2013-04-25 05:07:00,30.4,14.4,29.99,SSW,211,0.0,0.0,51,0.00,CLR,SCT,0.00,WeatherDisplay:10.37,2013-04-25 12:07:00,
2013-04-25 05:12:00,30.6,14.1,29.99,SSW,211,0.0,0.0,50,0.00,CLR,SCT,0.00,WeatherDisplay:10.37,2013-04-25 12:12:00,
2013-04-25 05:18:00,30.2,14.2,29.99,SSW,211,0.0,0.0,51,0.00,CLR,SCT,0.00,WeatherDisplay:10.37,2013-04-25 12:18:00,
2013-04-25 05:23:00,30.2,14.7,29.99,SSW,211,0.0,0.0,52,0.00,CLR,SCT,0.00,WeatherDisplay:10.37,2013-04-25 12:23:00,
2013-04-25 05:28:00,29.8,15.6,29.99,SSW,211,4.6,4.6,55,0.00,CLR,SCT,0.00,WeatherDisplay:10.37,2013-04-25 12:28:00,
2013-04-25 05:33:00,29.7,15.9,29.99,SSW,211,4.6,4.6,56,0.00,CLR,SCT,0.00,WeatherDisplay:10.37,2013-04-25 12:33:00,
2013-04-25 05:38:00,29.5,14.9,29.99,SSW,213,4.9,4.9,54,0.00,CLR,SCT,0.00,WeatherDisplay:10.37,2013-04-25 12:38:00,
2013-04-25 05:43:00,29.7,15.0,29.99,SSW,213,3.5,3.5,54,0.00,CLR,SCT,0.00,WeatherDisplay:10.37,2013-04-25 12:43:00,
2013-04-25 05:49:00,29.5,14.4,29.99,SSW,213,4.0,4.0,53,0.00,CLR,SCT,0.00,WeatherDisplay:10.37,2013-04-25 12:49:00,
2013-04-25 05:54:00,29.5,15.3,29.99,SSW,213,4.6,4.6,55,0.00,CLR,SCT,0.00,WeatherDisplay:10.37,2013-04-25 12:54:00,
2013-04-25 05:59:00,29.5,14.9,29.99,SSW,213,4.0,4.0,54,0.00,CLR,SCT,0.00,WeatherDisplay:10.37,2013-04-25 12:59:00,
2013-04-25 06:04:00,29.5,15.3,29.99,SSW,210,4.6,4.6,55,0.00,CLR,SCT,0.00,WeatherDisplay:10.37,2013-04-25 13:04:00,
2013-04-25 06:09:00,29.1,15.4,29.99,SSW,210,3.5,4.0,56,0.00,CLR,SCT,0.00,WeatherDisplay:10.37,2013-04-25 13:09:00,
2013-04-25 06:14:00,29.3,14.7,29.99,SSW,212,4.6,4.6,54,0.00,CLR,SCT,0.00,WeatherDisplay:10.37,2013-04-25 13:14:00,
2013-04-25 06:19:00,29.7,14.6,29.96,SSW,210,5.8,5.8,53,0.00,CLR,SCT,0.00,WeatherDisplay:10.37,2013-04-25 13:19:00,
2013-04-25 06:25:00,30.0,14.5,29.96,SW,214,5.8,5.8,52,0.00,CLR,SCT,0.00,WeatherDisplay:10.37,2013-04-25 13:25:00,
2013-04-25 06:30:00,30.2,14.2,29.96,SW,218,5.8,5.8,51,0.00,CLR,SCT,0.00,WeatherDisplay:10.37,2013-04-25 13:30:00,
2013-04-25 06:35:00,30.4,13.9,29.99,SW,221,4.6,4.6,50,0.00,CLR,SCT,0.00,WeatherDisplay:10.37,2013-04-25 13:35:00,
2013-04-25 06:40:00,30.7,14.7,29.99,SSW,210,4.6,4.6,51,0.00,CLR,SCT,0.00,WeatherDisplay:10.37,2013-04-25 13:40:00,
2013-04-25 06:45:00,30.6,15.0,29.99,SSW,196,3.5,3.6,52,0.00,CLR,SCT,0.00,WeatherDisplay:10.37,2013-04-25 13:45:00,
2013-04-25 06:50:00,30.2,14.7,29.99,SSW,205,5.8,5.8,52,0.00,CLR,SCT,0.00,WeatherDisplay:10.37,2013-04-25 13:50:00,
2013-04-25 06:55:00,30.4,14.4,29.99,SSW,212,5.8,5.8,51,0.00,CLR,SCT,0.00,WeatherDisplay:10.37,2013-04-25 13:55:00,
2013-04-25 07:01:00,31.3,14.8,29.99,SSW,201,4.6,4.6,50,0.00,CLR,SCT,0.00,WeatherDisplay:10.37,2013-04-25 14:01:00,
2013-04-25 07:06:00,32.2,15.1,29.99,SSW,192,4.6,4.6,49,0.00,CLR,SCT,0.00,WeatherDisplay:10.37,2013-04-25 14:06:00,
2013-04-25 07:11:00,32.5,15.0,29.99,South,187,3.5,3.5,48,0.00,CLR,SCT,0.00,WeatherDisplay:10.37,2013-04-25 14:11:00,
2013-04-25 07:16:00,32.9,15.3,29.99,South,187,2.3,2.3,48,0.00,CLR,SCT,0.00,WeatherDisplay:10.37,2013-04-25 14:16:00,
2013-04-25 07:21:00,33.1,16.0,29.99,South,178,0.0,0.0,49,0.00,CLR,SCT,0.00,WeatherDisplay:10.37,2013-04-25 14:21:00,
2013-04-25 07:26:00,33.4,15.8,29.99,South,178,2.3,0.0,48,0.00,CLR,SCT,0.00,WeatherDisplay:10.37,2013-04-25 14:26:00,
2013-04-25 07:31:00,33.8,15.2,29.99,South,178,0.0,0.0,46,0.00,CLR,SCT,0.00,WeatherDisplay:10.37,2013-04-25 14:31:00,
2013-04-25 07:36:00,34.2,15.0,29.99,South,178,0.0,0.0,45,0.00,CLR,SCT,0.00,WeatherDisplay:10.37,2013-04-25 14:36:00,
2013-04-25 07:42:00,34.7,15.0,29.99,South,178,0.0,0.0,44,0.00,CLR,SCT,0.00,WeatherDisplay:10.37,2013-04-25 14:42:00,
2013-04-25 07:47:00,35.6,15.3,29.99,South,176,3.5,3.5,43,0.00,CLR,SCT,0.00,WeatherDisplay:10.37,2013-04-25 14:47:00,
2013-04-25 07:52:00,36.3,15.4,29.99,SSE,153,4.9,4.9,42,0.00,CLR,SCT,0.00,WeatherDisplay:10.37,2013-04-25 14:52:00,
2013-04-25 07:57:00,37.4,15.8,29.99,South,185,4.6,4.6,41,0.00,CLR,SCT,0.00,WeatherDisplay:10.37,2013-04-25 14:57:00,
2013-04-25 08:02:00,38.3,16.6,29.99,South,185,0.0,0.0,41,0.00,CLR,SCT,0.00,WeatherDisplay:10.37,2013-04-25 15:02:00,
2013-04-25 08:08:00,39.2,16.9,29.99,SSE,167,3.1,0.0,40,0.00,CLR,SCT,0.00,WeatherDisplay:10.37,2013-04-25 15:08:00,
2013-04-25 08:13:00,40.3,17.8,29.99,SSE,168,0.0,0.0,40,0.00,CLR,SCT,0.00,WeatherDisplay:10.37,2013-04-25 15:13:00,
2013-04-25 08:18:00,41.0,18.5,29.99,SSW,201,2.3,2.3,40,0.00,CLR,SCT,0.00,WeatherDisplay:10.37,2013-04-25 15:18:00,
2013-04-25 08:23:00,42.1,19.5,29.99,SSW,202,3.5,3.5,40,0.00,CLR,SCT,0.00,WeatherDisplay:10.37,2013-04-25 15:23:00,
2013-04-25 08:28:00,43.2,19.8,29.99,SE,143,3.5,0.0,39,0.00,CLR,SCT,0.00,WeatherDisplay:10.37,2013-04-25 15:28:00,
2013-04-25 08:33:00,44.2,20.8,29.99,SE,126,4.6,4.6,39,0.00,CLR,SCT,0.00,WeatherDisplay:10.37,2013-04-25 15:33:00,
2013-04-25 08:38:00,45.5,21.9,29.99,SSE,158,5.8,5.8,39,0.00,CLR,SCT,0.00,WeatherDisplay:10.37,2013-04-25 15:38:00,
2013-04-25 08:44:00,46.6,22.3,29.99,SE,133,3.5,3.5,38,0.00,CLR,SCT,0.00,WeatherDisplay:10.37,2013-04-25 15:44:00,
2013-04-25 08:49:00,47.5,23.1,29.99,SE,144,3.5,0.0,38,0.00,CLR,SCT,0.00,WeatherDisplay:10.37,2013-04-25 15:49:00,
2013-04-25 08:54:00,48.7,24.2,29.99,SSE,163,0.0,0.0,38,0.00,CLR,SCT,0.00,WeatherDisplay:10.37,2013-04-25 15:54:00,
2013-04-25 08:59:00,50.0,24.7,29.99,SSE,152,3.6,0.0,37,0.00,CLR,SCT,0.00,WeatherDisplay:10.37,2013-04-25 15:59:00,
2013-04-25 09:04:00,51.6,26.2,29.99,SSE,149,3.5,0.0,37,0.00,CLR,SCT,0.00,WeatherDisplay:10.37,2013-04-25 16:04:00,
2013-04-25 09:09:00,52.9,26.6,29.99,SE,141,3.5,3.5,36,0.00,CLR,SCT,0.00,WeatherDisplay:10.37,2013-04-25 16:09:00,
2013-04-25 09:14:00,54.3,27.9,29.99,East,91,4.6,4.6,36,0.00,CLR,SCT,0.00,WeatherDisplay:10.37,2013-04-25 16:14:00,
2013-04-25 09:19:00,55.6,29.0,29.99,SE,126,5.8,5.8,36,0.00,CLR,SCT,0.00,WeatherDisplay:10.37,2013-04-25 16:19:00,
2013-04-25 09:24:00,56.7,29.3,29.99,SE,127,5.8,5.8,35,0.00,CLR,SCT,0.00,WeatherDisplay:10.37,2013-04-25 16:24:00,
2013-04-25 09:29:00,57.7,30.2,29.99,ESE,115,0.0,6.0,35,0.00,CLR,SCT,0.00,WeatherDisplay:10.37,2013-04-25 16:29:00,
2013-04-25 09:35:00,59.4,31.7,29.99,ENE,74,5.8,5.8,35,0.00,CLR,SCT,0.00,WeatherDisplay:10.37,2013-04-25 16:35:00,
2013-04-25 09:40:00,60.1,32.3,29.99,ESE,123,3.5,0.0,35,0.00,CLR,SCT,0.00,WeatherDisplay:10.37,2013-04-25 16:40:00,
2013-04-25 09:45:00,60.8,32.2,29.99,SE,130,5.8,5.8,34,0.00,CLR,SCT,0.00,WeatherDisplay:10.37,2013-04-25 16:45:00,
2013-04-25 09:50:00,61.7,33.0,29.99,ESE,123,5.8,5.8,34,0.00,CLR,SCT,0.00,WeatherDisplay:10.37,2013-04-25 16:50:00,
2013-04-25 09:55:00,62.2,33.5,29.99,East,95,4.6,4.6,34,0.00,CLR,SCT,0.00,WeatherDisplay:10.37,2013-04-25 16:55:00,
2013-04-25 10:00:00,63.5,34.6,29.99,NE,51,5.8,5.8,34,0.00,CLR,SCT,0.00,WeatherDisplay:10.37,2013-04-25 17:00:00,
2013-04-25 10:05:00,65.3,35.4,29.99,East,92,3.5,0.0,33,0.00,CLR,SCT,0.00,WeatherDisplay:10.37,2013-04-25 17:05:00,
2013-04-25 10:10:00,66.6,36.5,29.99,NE,42,4.0,4.0,33,0.00,CLR,SCT,0.00,WeatherDisplay:10.37,2013-04-25 17:10:00,
2013-04-25 10:15:00,67.6,37.5,29.99,ENE,78,5.8,5.8,33,0.00,CLR,SCT,0.00,WeatherDisplay:10.37,2013-04-25 17:15:00,
2013-04-25 10:21:00,68.7,38.4,29.99,ENE,66,8.1,8.1,33,0.00,CLR,SCT,0.00,WeatherDisplay:10.37,2013-04-25 17:21:00,
2013-04-25 10:26:00,69.4,39.1,29.99,East,87,8.1,8.1,33,0.00,CLR,SCT,0.00,WeatherDisplay:10.37,2013-04-25 17:26:00,
2013-04-25 10:31:00,69.6,39.2,29.99,ENE,74,3.5,4.0,33,0.00,CLR,SCT,0.00,WeatherDisplay:10.37,2013-04-25 17:31:00,
2013-04-25 10:36:00,69.8,38.6,29.99,ENE,69,3.5,0.0,32,0.00,CLR,SCT,0.00,WeatherDisplay:10.37,2013-04-25 17:36:00,
2013-04-25 10:41:00,70.3,39.1,29.99,East,83,5.8,5.8,32,0.00,CLR,SCT,0.00,WeatherDisplay:10.37,2013-04-25 17:41:00,
2013-04-25 10:46:00,70.9,39.5,29.99,NNE,33,5.8,5.8,32,0.00,CLR,SCT,0.00,WeatherDisplay:10.37,2013-04-25 17:46:00,
2013-04-25 10:52:00,71.1,39.7,29.99,North,0,10.4,10.4,32,0.00,CLR,SCT,0.00,WeatherDisplay:10.37,2013-04-25 17:52:00,
2013-04-25 10:57:00,71.8,40.3,29.99,ENE,69,6.3,6.7,32,0.00,CLR,SCT,0.00,WeatherDisplay:10.37,2013-04-25 17:57:00,
2013-04-25 11:02:00,72.5,41.0,29.99,NE,48,9.2,9.2,32,0.00,CLR,SCT,0.00,WeatherDisplay:10.37,2013-04-25 18:02:00,
2013-04-25 11:07:00,73.2,41.6,29.99,ENE,78,5.8,5.8,32,0.00,CLR,SCT,0.00,WeatherDisplay:10.37,2013-04-25 18:07:00,
2013-04-25 11:12:00,73.2,41.6,29.99,ENE,63,5.8,5.8,32,0.00,CLR,SCT,0.00,WeatherDisplay:10.37,2013-04-25 18:12:00,
2013-04-25 11:17:00,73.8,41.2,29.99,ESE,122,10.4,10.4,31,0.00,CLR,SCT,0.00,WeatherDisplay:10.37,2013-04-25 18:17:00,
2013-04-25 11:22:00,73.9,41.4,29.99,NE,52,8.7,8.7,31,0.00,CLR,SCT,0.00,WeatherDisplay:10.37,2013-04-25 18:22:00,
2013-04-25 11:28:00,74.1,41.5,29.99,ENE,69,5.8,5.8,31,0.00,CLR,SCT,0.00,WeatherDisplay:10.37,2013-04-25 18:28:00,
2013-04-25 11:33:00,74.7,42.0,29.99,East,90,5.8,5.8,31,0.00,CLR,SCT,0.00,WeatherDisplay:10.37,2013-04-25 18:33:00,
2013-04-25 11:38:00,75.4,42.6,29.99,ENE,67,5.8,5.8,31,0.00,CLR,SCT,0.00,WeatherDisplay:10.37,2013-04-25 18:38:00,
2013-04-25 11:43:00,75.6,42.8,29.99,NE,51,5.8,5.8,31,0.00,CLR,SCT,0.00,WeatherDisplay:10.37,2013-04-25 18:43:00,
2013-04-25 11:48:00,76.1,43.3,29.99,NNW,348,13.2,13.2,31,0.00,CLR,SCT,0.00,WeatherDisplay:10.37,2013-04-25 18:48:00,
2013-04-25 11:53:00,76.1,43.3,29.99,ENE,73,5.8,6.3,31,0.00,CLR,SCT,0.00,WeatherDisplay:10.37,2013-04-25 18:53:00,
2013-04-25 11:59:00,77.0,44.0,29.99,WNW,285,2.3,2.7,31,0.00,CLR,SCT,0.00,WeatherDisplay:10.37,2013-04-25 18:59:00,
2013-04-25 12:04:00,77.2,44.2,29.99,NNW,337,6.3,7.2,31,0.00,CLR,SCT,0.00,WeatherDisplay:10.37,2013-04-25 19:04:00,
2013-04-25 12:09:00,77.5,44.5,29.99,WNW,290,3.5,3.5,31,0.00,CLR,SCT,0.00,WeatherDisplay:10.37,2013-04-25 19:09:00,
2013-04-25 12:14:00,77.7,44.7,29.99,NNE,33,15.0,15.0,31,0.00,CLR,SCT,0.00,WeatherDisplay:10.37,2013-04-25 19:14:00,
2013-04-25 12:19:00,77.4,44.4,29.99,NW,312,8.1,8.1,31,0.00,CLR,SCT,0.00,WeatherDisplay:10.37,2013-04-25 19:19:00,
2013-04-25 12:24:00,78.3,45.1,29.99,WNW,299,3.5,3.6,31,0.00,CLR,SCT,0.00,WeatherDisplay:10.37,2013-04-25 19:24:00,
2013-04-25 12:29:00,77.9,44.8,29.99,NW,305,2.0,15.0,31,0.00,CLR,SCT,0.00,WeatherDisplay:10.37,2013-04-25 19:29:00,
2013-04-25 12:35:00,78.6,45.4,29.99,NNE,25,9.2,9.2,31,0.00,CLR,SCT,0.00,WeatherDisplay:10.37,2013-04-25 19:35:00,
2013-04-25 12:40:00,78.6,45.4,29.99,ENE,61,3.5,0.0,31,0.00,CLR,SCT,0.00,WeatherDisplay:10.37,2013-04-25 19:40:00,
2013-04-25 12:45:00,79.0,44.9,29.99,North,353,5.8,5.8,30,0.00,CLR,SCT,0.00,WeatherDisplay:10.37,2013-04-25 19:45:00,
2013-04-25 12:50:00,79.2,45.0,29.99,NW,325,8.1,8.1,30,0.00,CLR,SCT,0.00,WeatherDisplay:10.37,2013-04-25 19:50:00,
2013-04-25 12:55:00,79.3,45.2,29.99,NNW,344,5.8,5.8,30,0.00,CLR,SCT,0.00,WeatherDisplay:10.37,2013-04-25 19:55:00,
2013-04-25 13:00:00,79.5,45.4,29.99,NNE,23,5.8,5.8,30,0.00,CLR,SCT,0.00,WeatherDisplay:10.37,2013-04-25 20:00:00,
2013-04-25 13:05:00,79.9,45.7,29.99,North,0,6.9,6.9,30,0.00,CLR,SCT,0.00,WeatherDisplay:10.37,2013-04-25 20:05:00,
2013-04-25 13:11:00,79.3,45.2,29.99,NNW,345,5.8,5.8,30,0.00,CLR,SCT,0.00,WeatherDisplay:10.37,2013-04-25 20:11:00,
2013-04-25 13:16:00,78.4,45.3,29.99,NNW,332,15.0,15.0,31,0.00,CLR,SCT,0.00,WeatherDisplay:10.37,2013-04-25 20:16:00,
2013-04-25 13:21:00,78.6,45.4,29.99,NW,308,8.1,8.1,31,0.00,CLR,SCT,0.00,WeatherDisplay:10.37,2013-04-25 20:21:00,
2013-04-25 13:26:00,78.6,45.4,29.99,North,0,11.5,11.5,31,0.00,CLR,SCT,0.00,WeatherDisplay:10.37,2013-04-25 20:26:00,
2013-04-25 13:31:00,78.6,45.4,29.99,NE,34,3.5,3.5,31,0.00,CLR,SCT,0.00,WeatherDisplay:10.37,2013-04-25 20:31:00,
2013-04-25 13:36:00,78.8,44.7,29.99,North,353,12.7,12.7,30,0.00,CLR,SCT,0.00,WeatherDisplay:10.37,2013-04-25 20:36:00,
2013-04-25 13:42:00,78.4,45.3,29.99,NNW,329,13.8,13.8,31,0.00,CLR,SCT,0.00,WeatherDisplay:10.37,2013-04-25 20:42:00,
2013-04-25 13:47:00,77.4,44.4,29.99,West,276,12.7,12.7,31,0.00,CLR,SCT,0.00,WeatherDisplay:10.37,2013-04-25 20:47:00,
2013-04-25 13:52:00,77.5,44.5,29.99,NNE,33,9.2,9.2,31,0.00,CLR,SCT,0.00,WeatherDisplay:10.37,2013-04-25 20:52:00,
2013-04-25 13:57:00,77.7,44.7,29.99,NNW,335,12.7,12.7,31,0.00,CLR,SCT,0.00,WeatherDisplay:10.37,2013-04-25 20:57:00,
2013-04-25 14:02:00,77.9,44.8,29.99,WNW,299,11.5,11.5,31,0.00,CLR,SCT,0.00,WeatherDisplay:10.37,2013-04-25 21:02:00,
2013-04-25 14:07:00,77.7,44.7,29.99,NNE,17,12.7,12.7,31,0.00,CLR,SCT,0.00,WeatherDisplay:10.37,2013-04-25 21:07:00,
2013-04-25 14:12:00,77.4,44.4,29.99,NW,313,10.9,10.9,31,0.00,CLR,SCT,0.00,WeatherDisplay:10.37,2013-04-25 21:12:00,
2013-04-25 14:18:00,76.5,43.6,29.99,NNE,15,8.1,8.1,31,0.00,CLR,SCT,0.00,WeatherDisplay:10.37,2013-04-25 21:18:00,
2013-04-25 14:23:00,75.4,42.6,29.99,NE,55,8.1,8.1,31,0.00,CLR,SCT,0.00,WeatherDisplay:10.37,2013-04-25 21:23:00,
2013-04-25 14:28:00,74.8,42.2,29.99,NNW,335,12.7,12.7,31,0.00,CLR,SCT,0.00,WeatherDisplay:10.37,2013-04-25 21:28:00,
2013-04-25 14:33:00,75.2,42.5,29.99,NNE,16,10.4,10.9,31,0.00,CLR,SCT,0.00,WeatherDisplay:10.37,2013-04-25 21:33:00,
2013-04-25 14:38:00,75.7,42.9,29.99,North,8,9.2,9.2,31,0.00,CLR,SCT,0.00,WeatherDisplay:10.37,2013-04-25 21:38:00,
2013-04-25 14:43:00,76.6,43.7,29.99,NW,308,9.2,9.2,31,0.00,CLR,SCT,0.00,WeatherDisplay:10.37,2013-04-25 21:43:00,
2013-04-25 14:48:00,76.6,43.7,29.99,North,0,18.4,18.4,31,0.00,CLR,SCT,0.00,WeatherDisplay:10.37,2013-04-25 21:48:00,
2013-04-25 14:54:00,76.1,43.3,29.99,NNW,345,17.3,17.3,31,0.00,CLR,SCT,0.00,WeatherDisplay:10.37,2013-04-25 21:54:00,
2013-04-25 14:59:00,75.7,42.9,29.99,North,6,17.3,17.3,31,0.00,CLR,SCT,0.00,WeatherDisplay:10.37,2013-04-25 21:59:00,
2013-04-25 15:04:00,75.9,43.1,29.99,North,7,21.9,21.9,31,0.00,CLR,SCT,0.00,WeatherDisplay:10.37,2013-04-25 22:04:00,
2013-04-25 15:09:00,76.5,43.6,29.99,NNW,327,9.2,9.2,31,0.00,CLR,SCT,0.00,WeatherDisplay:10.37,2013-04-25 22:09:00,
2013-04-25 15:14:00,77.2,44.2,29.99,NNE,25,11.5,11.5,31,0.00,CLR,SCT,0.00,WeatherDisplay:10.37,2013-04-25 22:14:00,
2013-04-25 15:19:00,77.5,44.5,29.99,NNW,342,13.2,13.2,31,0.00,CLR,SCT,0.00,WeatherDisplay:10.37,2013-04-25 22:19:00,
2013-04-25 15:25:00,77.4,44.4,29.99,NNW,341,8.1,8.1,31,0.00,CLR,SCT,0.00,WeatherDisplay:10.37,2013-04-25 22:25:00,
2013-04-25 15:30:00,77.2,44.2,29.99,NNW,338,12.7,12.7,31,0.00,CLR,SCT,0.00,WeatherDisplay:10.37,2013-04-25 22:30:00,
2013-04-25 15:35:00,77.5,44.5,29.99,NNW,343,13.2,13.2,31,0.00,CLR,SCT,0.00,WeatherDisplay:10.37,2013-04-25 22:35:00,
2013-04-25 15:40:00,78.1,45.0,29.99,NNW,346,12.7,12.7,31,0.00,CLR,SCT,0.00,WeatherDisplay:10.37,2013-04-25 22:40:00,
2013-04-25 15:45:00,78.3,45.1,29.99,NW,319,12.7,12.7,31,0.00,CLR,SCT,0.00,WeatherDisplay:10.37,2013-04-25 22:45:00,
2013-04-25 15:50:00,77.9,44.8,29.96,NNW,329,13.8,13.8,31,0.00,CLR,SCT,0.00,WeatherDisplay:10.37,2013-04-25 22:50:00,
2013-04-25 15:56:00,77.7,44.7,29.96,NNW,332,12.7,12.7,31,0.00,CLR,SCT,0.00,WeatherDisplay:10.37,2013-04-25 22:56:00,
2013-04-25 16:01:00,77.9,44.8,29.96,North,0,15.0,15.0,31,0.00,CLR,SCT,0.00,WeatherDisplay:10.37,2013-04-25 23:01:00,
2013-04-25 16:06:00,77.5,44.5,29.99,North,357,21.9,21.9,31,0.00,CLR,SCT,0.00,WeatherDisplay:10.37,2013-04-25 23:06:00,
2013-04-25 16:12:00,77.0,44.0,29.99,NW,318,12.7,12.7,31,0.00,CLR,SCT,0.00,WeatherDisplay:10.37,2013-04-25 23:12:00,
2013-04-25 16:17:00,76.5,43.6,29.99,NNW,329,13.8,13.8,31,0.00,CLR,SCT,0.00,WeatherDisplay:10.37,2013-04-25 23:17:00,
2013-04-25 16:22:00,76.6,43.7,29.99,NNW,348,10.4,10.4,31,0.00,CLR,SCT,0.00,WeatherDisplay:10.37,2013-04-25 23:22:00,
2013-04-25 16:27:00,77.0,44.0,29.99,North,353,17.3,17.3,31,0.00,CLR,SCT,0.00,WeatherDisplay:10.37,2013-04-25 23:27:00,
2013-04-25 16:32:00,76.8,43.9,29.99,WNW,292,15.0,15.0,31,0.00,CLR,SCT,0.00,WeatherDisplay:10.37,2013-04-25 23:32:00,
2013-04-25 16:37:00,76.8,43.9,29.99,NW,325,12.7,12.7,31,0.00,CLR,SCT,0.00,WeatherDisplay:10.37,2013-04-25 23:37:00,
2013-04-25 16:42:00,76.1,43.3,29.99,WNW,285,12.7,12.7,31,0.00,CLR,SCT,0.00,WeatherDisplay:10.37,2013-04-25 23:42:00,
2013-04-25 16:47:00,75.7,42.9,29.99,NNW,346,17.3,17.3,31,0.00,CLR,SCT,0.00,WeatherDisplay:10.37,2013-04-25 23:47:00,
2013-04-25 16:53:00,75.0,42.3,29.99,NNW,340,17.3,17.3,31,0.00,CLR,SCT,0.00,WeatherDisplay:10.37,2013-04-25 23:53:00,
2013-04-25 16:58:00,75.2,42.5,29.99,NW,325,13.8,13.8,31,0.00,CLR,SCT,0.00,WeatherDisplay:10.37,2013-04-25 23:58:00,
2013-04-25 17:03:00,75.0,42.3,29.99,North,353,15.0,15.0,31,0.00,CLR,SCT,0.00,WeatherDisplay:10.37,2013-04-26 00:03:00,
2013-04-25 17:08:00,74.8,42.2,29.99,North,2,15.0,15.0,31,0.00,CLR,SCT,0.00,WeatherDisplay:10.37,2013-04-26 00:08:00,
2013-04-25 17:14:00,74.5,41.9,29.99,North,2,10.5,10.5,31,0.00,CLR,SCT,0.00,WeatherDisplay:10.37,2013-04-26 00:14:00,
2013-04-25 17:19:00,74.3,41.7,29.99,NNW,343,17.3,17.3,31,0.00,CLR,SCT,0.00,WeatherDisplay:10.37,2013-04-26 00:19:00,
2013-04-25 17:24:00,74.5,41.9,29.99,NNW,333,14.1,14.1,31,0.00,CLR,SCT,0.00,WeatherDisplay:10.37,2013-04-26 00:24:00,
2013-04-25 17:29:00,74.1,41.5,29.99,North,0,17.3,17.3,31,0.00,CLR,SCT,0.00,WeatherDisplay:10.37,2013-04-26 00:29:00,
2013-04-25 17:34:00,74.1,41.5,29.99,NNW,335,17.3,17.3,31,0.00,CLR,SCT,0.00,WeatherDisplay:10.37,2013-04-26 00:34:00,
2013-04-25 17:39:00,73.9,41.4,29.99,NW,307,15.0,15.0,31,0.00,CLR,SCT,0.00,WeatherDisplay:10.37,2013-04-26 00:39:00,
2013-04-25 17:44:00,73.6,41.1,29.99,North,353,15.0,15.0,31,0.00,CLR,SCT,0.00,WeatherDisplay:10.37,2013-04-26 00:44:00,
2013-04-25 17:50:00,73.6,41.1,29.99,WNW,297,10.4,10.4,31,0.00,CLR,SCT,0.00,WeatherDisplay:10.37,2013-04-26 00:50:00,
2013-04-25 17:55:00,73.6,41.1,29.99,NNW,329,9.2,9.2,31,0.00,CLR,SCT,0.00,WeatherDisplay:10.37,2013-04-26 00:55:00,
2013-04-25 18:00:00,73.2,41.6,29.99,NNW,344,15.0,15.0,32,0.00,CLR,SCT,0.00,WeatherDisplay:10.37,2013-04-26 01:00:00,
2013-04-25 18:05:00,73.0,41.4,30.02,North,357,12.7,12.7,32,0.00,CLR,SCT,0.00,WeatherDisplay:10.37,2013-04-26 01:05:00,
2013-04-25 18:10:00,72.9,41.3,30.02,NW,326,11.5,11.5,32,0.00,CLR,SCT,0.00,WeatherDisplay:10.37,2013-04-26 01:10:00,
2013-04-25 18:15:00,72.9,41.3,30.02,North,353,11.5,11.5,32,0.00,CLR,SCT,0.00,WeatherDisplay:10.37,2013-04-26 01:15:00,
2013-04-25 18:21:00,72.7,41.1,30.02,NW,309,5.8,9.2,32,0.00,CLR,SCT,0.00,WeatherDisplay:10.37,2013-04-26 01:21:00,
2013-04-25 18:26:00,72.3,40.8,30.02,NNW,340,9.6,9.6,32,0.00,CLR,SCT,0.00,WeatherDisplay:10.37,2013-04-26 01:26:00,
2013-04-25 18:31:00,72.0,40.5,30.02,NW,313,12.7,12.7,32,0.00,CLR,SCT,0.00,WeatherDisplay:10.37,2013-04-26 01:31:00,
2013-04-25 18:36:00,71.4,40.0,30.02,NNW,346,12.7,12.7,32,0.00,CLR,SCT,0.00,WeatherDisplay:10.37,2013-04-26 01:36:00,
2013-04-25 18:41:00,71.1,39.7,30.02,WNW,289,12.7,12.7,32,0.00,CLR,SCT,0.00,WeatherDisplay:10.37,2013-04-26 01:41:00,
2013-04-25 18:46:00,70.5,39.2,30.02,North,353,9.2,9.2,32,0.00,CLR,SCT,0.00,WeatherDisplay:10.37,2013-04-26 01:46:00,
2013-04-25 18:51:00,70.0,38.8,30.02,North,3,11.5,11.5,32,0.00,CLR,SCT,0.00,WeatherDisplay:10.37,2013-04-26 01:51:00,
2013-04-25 18:56:00,69.8,38.6,30.02,NE,40,11.5,11.5,32,0.00,CLR,SCT,0.00,WeatherDisplay:10.37,2013-04-26 01:56:00,
2013-04-25 19:01:00,69.3,38.9,30.02,NNW,348,8.1,8.1,33,0.00,CLR,SCT,0.00,WeatherDisplay:10.37,2013-04-26 02:01:00,
2013-04-25 19:07:00,68.9,38.6,30.02,North,6,12.7,12.7,33,0.00,CLR,SCT,0.00,WeatherDisplay:10.37,2013-04-26 02:07:00,
2013-04-25 19:12:00,68.5,38.3,30.02,NNW,330,8.1,8.1,33,0.00,CLR,SCT,0.00,WeatherDisplay:10.37,2013-04-26 02:12:00,
2013-04-25 19:17:00,68.0,37.8,30.02,NNW,327,8.1,8.1,33,0.00,CLR,SCT,0.00,WeatherDisplay:10.37,2013-04-26 02:17:00,
2013-04-25 19:22:00,67.8,37.6,30.02,WNW,292,5.8,5.8,33,0.00,CLR,SCT,0.00,WeatherDisplay:10.37,2013-04-26 02:22:00,
2013-04-25 19:27:00,67.5,37.3,30.02,WNW,287,8.3,8.3,33,0.00,CLR,SCT,0.00,WeatherDisplay:10.37,2013-04-26 02:27:00,
2013-04-25 19:32:00,67.3,37.2,30.02,WNW,287,8.1,8.1,33,0.00,CLR,SCT,0.00,WeatherDisplay:10.37,2013-04-26 02:32:00,
2013-04-25 19:37:00,66.7,36.7,30.05,West,275,9.2,9.2,33,0.00,CLR,SCT,0.00,WeatherDisplay:10.37,2013-04-26 02:37:00,
2013-04-25 19:42:00,66.4,36.4,30.05,West,278,9.2,9.2,33,0.00,CLR,SCT,0.00,WeatherDisplay:10.37,2013-04-26 02:42:00,
2013-04-25 19:47:00,66.0,36.1,30.05,WNW,292,8.1,8.1,33,0.00,CLR,SCT,0.00,WeatherDisplay:10.37,2013-04-26 02:47:00,
2013-04-25 19:52:00,65.7,35.8,30.05,West,280,5.8,5.8,33,0.00,CLR,SCT,0.00,WeatherDisplay:10.37,2013-04-26 02:52:00,
2013-04-25 19:58:00,65.3,35.4,30.05,West,270,8.1,8.1,33,0.00,CLR,SCT,0.00,WeatherDisplay:10.37,2013-04-26 02:58:00,
2013-04-25 20:03:00,64.8,35.0,30.05,WNW,285,4.6,4.6,33,0.00,CLR,SCT,0.00,WeatherDisplay:10.37,2013-04-26 03:03:00,
2013-04-25 20:08:00,64.2,35.2,30.05,West,268,3.5,3.6,34,0.00,CLR,SCT,0.00,WeatherDisplay:10.37,2013-04-26 03:08:00,
2013-04-25 20:13:00,63.9,34.9,30.05,West,275,5.8,5.8,34,0.00,CLR,SCT,0.00,WeatherDisplay:10.37,2013-04-26 03:13:00,
2013-04-25 20:18:00,63.3,34.4,30.05,West,265,5.8,5.8,34,0.00,CLR,SCT,0.00,WeatherDisplay:10.37,2013-04-26 03:18:00,
2013-04-25 20:23:00,62.6,33.8,30.05,West,267,8.1,8.1,34,0.00,CLR,SCT,0.00,WeatherDisplay:10.37,2013-04-26 03:23:00,
2013-04-25 20:29:00,62.1,33.3,30.05,WNW,284,8.1,8.1,34,0.00,CLR,SCT,0.00,WeatherDisplay:10.37,2013-04-26 03:29:00,
2013-04-25 20:34:00,61.9,33.2,30.05,NW,310,5.8,5.8,34,0.00,CLR,SCT,0.00,WeatherDisplay:10.37,2013-04-26 03:34:00,
2013-04-25 20:39:00,61.5,32.9,30.05,NW,311,4.6,4.6,34,0.00,CLR,SCT,0.00,WeatherDisplay:10.37,2013-04-26 03:39:00,
2013-04-25 20:44:00,61.0,32.4,30.05,NNW,336,3.5,3.5,34,0.00,CLR,SCT,0.00,WeatherDisplay:10.37,2013-04-26 03:44:00,
2013-04-25 20:49:00,60.4,32.6,30.05,NNW,345,3.5,3.5,35,0.00,CLR,SCT,0.00,WeatherDisplay:10.37,2013-04-26 03:49:00,
2013-04-25 20:55:00,59.9,32.2,30.05,NNW,345,0.0,0.0,35,0.00,CLR,SCT,0.00,WeatherDisplay:10.37,2013-04-26 03:55:00,
2013-04-25 21:00:00,59.7,32.0,30.05,West,276,3.5,3.5,35,0.00,CLR,SCT,0.00,WeatherDisplay:10.37,2013-04-26 04:00:00,
2013-04-25 21:01:00,59.7,32.0,30.05,West,276,3.5,3.5,35,0.00,CLR,SCT,0.00,WeatherDisplay:10.37,2013-04-26 04:01:00,
2013-04-25 21:02:00,59.5,31.8,30.05,West,276,3.5,3.5,35,0.00,CLR,SCT,0.00,WeatherDisplay:10.37,2013-04-26 04:02:00,
2013-04-25 21:03:00,59.4,31.7,30.05,West,276,3.5,3.5,35,0.00,CLR,SCT,0.00,WeatherDisplay:10.37,2013-04-26 04:03:00,
2013-04-25 21:08:00,58.6,31.0,30.08,SE,133,5.8,5.8,35,0.00,CLR,SCT,0.00,WeatherDisplay:10.37,2013-04-26 04:08:00,
2013-04-25 21:13:00,58.3,30.7,30.08,East,98,5.8,5.8,35,0.00,CLR,SCT,0.00,WeatherDisplay:10.37,2013-04-26 04:13:00,
2013-04-25 21:19:00,58.3,30.7,30.08,East,95,2.7,2.7,35,0.00,CLR,SCT,0.00,WeatherDisplay:10.37,2013-04-26 04:19:00,
2013-04-25 21:24:00,57.9,30.4,30.08,East,95,0.0,0.0,35,0.00,CLR,SCT,0.00,WeatherDisplay:10.37,2013-04-26 04:24:00,
2013-04-25 21:29:00,58.1,30.6,30.08,East,95,0.0,0.0,35,0.00,CLR,SCT,0.00,WeatherDisplay:10.37,2013-04-26 04:29:00,
2013-04-25 21:34:00,57.9,30.4,30.08,East,95,3.5,3.5,35,0.00,CLR,SCT,0.00,WeatherDisplay:10.37,2013-04-26 04:34:00,
2013-04-25 21:39:00,57.2,29.8,30.08,SSE,147,8.1,8.1,35,0.00,CLR,SCT,0.00,WeatherDisplay:10.37,2013-04-26 04:39:00,
2013-04-25 21:44:00,56.3,29.7,30.08,SSE,156,3.5,3.5,36,0.00,CLR,SCT,0.00,WeatherDisplay:10.37,2013-04-26 04:44:00,
2013-04-25 21:49:00,55.8,29.2,30.08,SSE,156,3.5,3.5,36,0.00,CLR,SCT,0.00,WeatherDisplay:10.37,2013-04-26 04:49:00,
2013-04-25 21:55:00,55.4,28.9,30.08,SSW,201,3.5,3.6,36,0.00,CLR,SCT,0.00,WeatherDisplay:10.37,2013-04-26 04:55:00,
2013-04-25 22:00:00,55.0,28.5,30.08,West,266,5.8,5.8,36,0.00,CLR,SCT,0.00,WeatherDisplay:10.37,2013-04-26 05:00:00,
2013-04-25 22:05:00,54.7,28.2,30.08,West,262,0.0,0.0,36,0.00,CLR,SCT,0.00,WeatherDisplay:10.37,2013-04-26 05:05:00,
2013-04-25 22:10:00,53.8,27.4,30.08,ESE,105,5.8,5.8,36,0.00,CLR,SCT,0.00,WeatherDisplay:10.37,2013-04-26 05:10:00,
2013-04-25 22:15:00,53.4,27.8,30.08,ESE,106,5.8,5.8,37,0.00,CLR,SCT,0.00,WeatherDisplay:10.37,2013-04-26 05:15:00,
2013-04-25 22:20:00,53.2,27.6,30.08,East,99,4.6,4.6,37,0.00,CLR,SCT,0.00,WeatherDisplay:10.37,2013-04-26 05:20:00,
2013-04-25 22:26:00,53.2,27.6,30.08,East,99,3.5,0.0,37,0.00,CLR,SCT,0.00,WeatherDisplay:10.37,2013-04-26 05:26:00,
2013-04-25 22:31:00,53.2,27.6,30.08,ESE,103,3.5,3.5,37,0.00,CLR,SCT,0.00,WeatherDisplay:10.37,2013-04-26 05:31:00,
2013-04-25 22:36:00,52.5,27.0,30.08,East,100,3.5,3.6,37,0.00,CLR,SCT,0.00,WeatherDisplay:10.37,2013-04-26 05:36:00,
2013-04-25 22:41:00,52.0,26.5,30.08,East,96,5.8,5.8,37,0.00,CLR,SCT,0.00,WeatherDisplay:10.37,2013-04-26 05:41:00,
2013-04-25 22:46:00,51.6,26.2,30.08,East,82,3.5,3.5,37,0.00,CLR,SCT,0.00,WeatherDisplay:10.37,2013-04-26 05:46:00,
2013-04-25 22:51:00,51.6,26.2,30.11,East,82,3.5,3.5,37,0.00,CLR,SCT,0.00,WeatherDisplay:10.37,2013-04-26 05:51:00,
2013-04-25 22:57:00,51.4,26.0,30.11,East,81,3.5,3.5,37,0.00,CLR,SCT,0.00,WeatherDisplay:10.37,2013-04-26 05:57:00,
2013-04-25 23:02:00,51.3,25.8,30.11,East,81,2.3,0.0,37,0.00,CLR,SCT,0.00,WeatherDisplay:10.37,2013-04-26 06:02:00,
2013-04-25 23:07:00,50.9,25.5,30.11,East,85,3.5,3.5,37,0.00,CLR,SCT,0.00,WeatherDisplay:10.37,2013-04-26 06:07:00,
2013-04-25 23:12:00,50.4,25.7,30.11,East,85,3.5,3.5,38,0.00,CLR,SCT,0.00,WeatherDisplay:10.37,2013-04-26 06:12:00,
2013-04-25 23:17:00,49.8,25.2,30.11,East,85,2.3,0.0,38,0.00,CLR,SCT,0.00,WeatherDisplay:10.37,2013-04-26 06:17:00,
2013-04-25 23:22:00,49.6,25.0,30.11,East,85,0.0,0.0,38,0.00,CLR,SCT,0.00,WeatherDisplay:10.37,2013-04-26 06:22:00,
2013-04-25 23:28:00,48.9,25.6,30.11,East,98,3.5,3.6,40,0.00,CLR,SCT,0.00,WeatherDisplay:10.37,2013-04-26 06:28:00,
2013-04-25 23:33:00,48.2,25.6,30.11,SSE,147,4.0,4.0,41,0.00,CLR,SCT,0.00,WeatherDisplay:10.37,2013-04-26 06:33:00,
2013-04-25 23:38:00,48.0,25.4,30.11,SSE,147,3.5,3.5,41,0.00,CLR,SCT,0.00,WeatherDisplay:10.37,2013-04-26 06:38:00,
2013-04-25 23:43:00,47.8,25.8,30.11,SSE,147,3.5,3.5,42,0.00,CLR,SCT,0.00,WeatherDisplay:10.37,2013-04-26 06:43:00,
2013-04-25 23:48:00,47.7,25.7,30.11,SSE,147,3.5,3.5,42,0.00,CLR,SCT,0.00,WeatherDisplay:10.37,2013-04-26 06:48:00,
2013-04-25 23:53:00,47.7,25.1,30.11,SSE,147,3.6,3.6,41,0.00,CLR,SCT,0.00,WeatherDisplay:10.37,2013-04-26 06:53:00,
2013-04-25 23:59:00,47.3,24.8,30.11,SSE,147,3.5,4.0,41,0.00,CLR,SCT,0.00,WeatherDisplay:10.37,2013-04-26 06:59:00,